Time;durP1;ratioP1;P1;durP2;ratioP2;P2;SDS_P1;SDS_P2;PMS_P1;PMS_P2;Temp;Humidity;BMP_temperature;BMP_pressure;BME280_temperature;BME280_humidity;BME280_pressure;Samples;Min_cycle;Max_cycle;Signal;HPM_P1;HPM_P2
2022/01/09 00:01:37;;;;;;;19.90;9.00;;;;;;;-0.62;87.14;98807.84;105278;1274;60399;-68
2022/01/09 00:04:30;;;;;;;15.80;7.70;;;;;;;-0.64;87.53;98813.66;105262;1273;73406;-68
2022/01/09 00:07:29;;;;;;;16.70;8.10;;;;;;;-0.65;87.32;98808.72;104970;1274;68244;-67
2022/01/09 00:10:34;;;;;;;18.60;8.20;;;;;;;-0.66;87.57;98813.13;105173;1274;73405;-68
2022/01/09 00:13:32;;;;;;;17.00;7.60;;;;;;;-0.67;87.57;98810.52;105249;1276;59815;-68
2022/01/09 00:16:34;;;;;;;17.90;8.40;;;;;;;-0.65;87.77;98809.41;104552;1274;60736;-68
2022/01/09 00:19:29;;;;;;;17.40;9.10;;;;;;;-0.67;87.60;98808.47;105103;1274;72044;-67
2022/01/09 00:22:43;;;;;;;17.20;8.70;;;;;;;-0.69;88.05;98800.31;104560;1273;1002772;-68
2022/01/09 00:25:45;;;;;;;16.90;8.40;;;;;;;-0.66;87.92;98803.18;105056;1274;71848;-68
2022/01/09 00:29:00;;;;;;;23.10;9.40;;;;;;;-0.64;88.17;98799.20;105132;1274;59766;-68
2022/01/09 00:32:13;;;;;;;19.20;9.20;;;;;;;-0.60;88.10;98796.91;105295;1273;59631;-68
2022/01/09 00:36:11;;;;;;;21.50;10.60;;;;;;;-0.59;88.30;98792.14;105254;1272;73638;-68
2022/01/09 00:39:12;;;;;;;20.20;10.20;;;;;;;-0.61;88.80;98789.65;105153;1274;68021;-69
2022/01/09 00:42:19;;;;;;;21.40;10.60;;;;;;;-0.64;89.56;98786.88;105420;1274;73179;-68
2022/01/09 00:45:20;;;;;;;25.50;12.50;;;;;;;-0.70;89.71;98784.88;105121;1274;59690;-68
2022/01/09 00:49:05;;;;;;;21.20;10.60;;;;;;;-0.69;89.92;98779.09;105498;1274;59631;-68
2022/01/09 00:52:01;;;;;;;22.70;10.90;;;;;;;-0.67;89.83;98775.67;105875;1272;72595;-68
2022/01/09 00:55:17;;;;;;;21.50;10.30;;;;;;;-0.67;89.69;98775.52;105374;1274;68058;-68
2022/01/09 00:58:23;;;;;;;20.50;10.30;;;;;;;-0.71;89.64;98778.31;105590;1274;72169;-68
2022/01/09 01:04:59;;;;;;;23.80;11.60;;;;;;;-0.73;90.04;98776.66;105750;1274;60350;-68
2022/01/09 01:07:53;;;;;;;19.40;8.80;;;;;;;-0.74;89.61;98777.57;105005;1274;72986;-70
2022/01/09 01:10:52;;;;;;;23.10;10.00;;;;;;;-0.76;89.16;98769.18;105097;1274;68168;-69
2022/01/09 01:15:01;;;;;;;27.10;11.30;;;;;;;-0.75;89.55;98768.41;105195;1274;72828;-68
2022/01/09 01:18:05;;;;;;;21.40;9.00;;;;;;;-0.73;89.64;98763.27;104612;1274;1003545;-68
2022/01/09 01:21:07;;;;;;;20.40;10.20;;;;;;;-0.72;89.57;98759.55;104894;1274;59657;-70
2022/01/09 01:24:08;;;;;;;19.50;9.20;;;;;;;-0.75;89.38;98762.33;104158;1274;1003128;-68
2022/01/09 01:27:39;;;;;;;27.10;12.90;;;;;;;-0.76;89.66;98751.60;105061;1273;67999;-68
2022/01/09 01:31:09;;;;;;;25.90;13.30;;;;;;;-0.76;89.90;98751.76;105028;1273;71501;-68
2022/01/09 01:34:36;;;;;;;22.50;11.40;;;;;;;-0.75;90.07;98746.97;105409;1272;59815;-68
2022/01/09 01:41:56;;;;;;;20.90;10.30;;;;;;;-0.74;90.02;98745.70;104928;1273;72093;-68
2022/01/09 01:44:54;;;;;;;24.40;11.10;;;;;;;-0.74;90.07;98743.99;105324;1273;68195;-68
2022/01/09 01:47:52;;;;;;;23.90;11.90;;;;;;;-0.77;89.97;98746.59;104966;1274;71552;-67
2022/01/09 01:51:14;;;;;;;23.70;11.60;;;;;;;-0.76;90.14;98747.92;104966;1274;59674;-67
2022/01/09 01:54:27;;;;;;;26.00;13.20;;;;;;;-0.75;89.95;98743.19;105234;1273;59623;-68
2022/01/09 01:57:21;;;;;;;17.90;7.80;;;;;;;-0.75;89.81;98739.35;105271;1273;73329;-68
2022/01/09 02:00:21;;;;;;;22.10;11.80;;;;;;;-0.77;89.40;98743.30;104772;1274;68345;-68
2022/01/09 02:03:34;;;;;;;22.40;10.90;;;;;;;-0.80;89.10;98737.15;104398;1274;1003052;-67
2022/01/09 02:06:43;;;;;;;19.10;7.90;;;;;;;-0.83;88.50;98741.13;105083;1273;59821;-67
2022/01/09 02:09:50;;;;;;;20.70;9.70;;;;;;;-0.88;88.08;98736.36;105286;1273;60692;-67
2022/01/09 02:12:51;;;;;;;18.50;9.20;;;;;;;-0.89;88.06;98741.11;105190;1273;73295;-67
2022/01/09 02:20:51;;;;;;;16.00;8.70;;;;;;;-0.96;87.26;98742.67;105106;1274;73318;-67
2022/01/09 02:24:38;;;;;;;19.20;7.90;;;;;;;-0.97;87.47;98741.34;105333;1273;59677;-68
2022/01/09 02:28:22;;;;;;;18.50;9.20;;;;;;;-1.01;87.44;98736.87;105451;1274;59749;-66
2022/01/09 02:36:09;;;;;;;14.20;6.30;;;;;;;-1.25;86.25;98719.93;105350;1274;67164;-67
2022/01/09 02:39:37;;;;;;;16.30;8.30;;;;;;;-1.35;86.46;98716.46;105460;1273;73028;-67
2022/01/09 02:43:03;;;;;;;17.70;7.90;;;;;;;-1.46;86.63;98721.48;105235;1273;59738;-67
2022/01/09 02:46:52;;;;;;;18.50;6.90;;;;;;;-1.54;86.62;98721.22;105249;1274;59570;-67
2022/01/09 02:50:34;;;;;;;14.00;5.60;;;;;;;-1.64;86.98;98724.69;105354;1274;73486;-67
2022/01/09 02:58:41;;;;;;;14.60;7.80;;;;;;;-1.85;87.34;98714.58;104607;1279;73057;-67
2022/01/09 03:03:08;;;;;;;16.90;8.60;;;;;;;-1.93;87.33;98708.84;104392;1278;59862;-67
2022/01/09 03:07:21;;;;;;;17.40;8.60;;;;;;;-2.00;87.64;98705.38;104910;1279;59585;-68
2022/01/09 03:10:49;;;;;;;18.30;7.80;;;;;;;-2.05;88.01;98704.02;104520;1279;73168;-67
2022/01/09 03:14:42;;;;;;;16.80;8.20;;;;;;;-2.09;88.21;98701.29;104914;1280;68307;-67
2022/01/09 03:18:40;;;;;;;19.40;8.80;;;;;;;-2.16;88.48;98701.77;104873;1280;73017;-68
2022/01/09 03:22:13;;;;;;;17.00;8.80;;;;;;;-2.23;89.03;98698.26;103922;1277;1002995;-68
2022/01/09 03:26:33;;;;;;;19.30;8.90;;;;;;;-2.27;89.06;98701.60;103937;1277;1016200;-68
2022/01/09 03:30:02;;;;;;;21.40;8.80;;;;;;;-2.30;89.50;98700.17;104948;1277;73422;-67
2022/01/09 03:33:58;;;;;;;17.50;8.40;;;;;;;-2.33;90.01;98692.64;105196;1274;66706;-68
2022/01/09 03:38:12;;;;;;;18.90;9.00;;;;;;;-2.36;91.03;98693.70;105134;1272;73217;-68
2022/01/09 03:46:41;;;;;;;26.40;10.70;;;;;;;-2.48;94.37;98694.90;105265;1274;59599;-68
2022/01/09 03:55:44;;;;;;;26.50;11.90;;;;;;;-2.37;95.12;98693.72;105386;1274;68074;-68
2022/01/09 03:59:45;;;;;;;28.50;11.50;;;;;;;-2.29;95.30;98696.48;105034;1274;72709;-68
2022/01/09 04:03:44;;;;;;;28.60;13.10;;;;;;;-2.22;95.47;98697.88;104902;1274;59798;-68
2022/01/09 04:07:48;;;;;;;30.80;13.20;;;;;;;-2.16;95.52;98685.60;105201;1274;60494;-68
2022/01/09 04:16:27;;;;;;;27.10;13.70;;;;;;;-2.04;95.68;98684.53;105082;1279;67678;-68
2022/01/09 04:20:15;;;;;;;27.30;12.80;;;;;;;-1.98;95.43;98671.73;104677;1280;72969;-68
2022/01/09 04:24:18;;;;;;;17.90;8.30;;;;;;;-2.00;95.51;98663.31;104585;1281;59679;-67
2022/01/09 04:28:45;;;;;;;25.80;12.00;;;;;;;-2.08;95.06;98668.18;103853;1281;1003468;-67
2022/01/09 04:33:16;;;;;;;26.80;11.40;;;;;;;-2.17;95.10;98668.65;104422;1281;74676;-68
2022/01/09 04:38:06;;;;;;;24.60;11.50;;;;;;;-2.25;95.34;98666.02;104491;1284;68042;-68
2022/01/09 04:41:55;;;;;;;19.80;8.30;;;;;;;-2.30;95.33;98660.39;103833;1289;71788;-68
2022/01/09 04:45:11;;;;;;;21.10;9.90;;;;;;;-2.37;95.53;98656.18;103732;1287;59933;-67
2022/01/09 04:49:35;;;;;;;29.20;12.10;;;;;;;-2.43;95.98;98659.45;104119;1284;59549;-68
2022/01/09 04:53:37;;;;;;;;;;;;;;;;;;;;;
2022/01/09 04:57:41;;;;;;;28.30;11.80;;;;;;;-2.45;96.75;98654.14;104076;1287;68629;-68
2022/01/09 05:01:06;;;;;;;26.30;11.50;;;;;;;-2.44;96.70;98659.10;103220;1287;1003022;-68
2022/01/09 05:04:32;;;;;;;23.60;10.40;;;;;;;-2.43;97.05;98661.81;103997;1287;59917;-68
2022/01/09 05:08:43;;;;;;;;;;;;;;;;;;;;;
2022/01/09 05:12:43;;;;;;;24.10;11.10;;;;;;;-2.37;97.43;98662.11;104479;1283;73548;-67
2022/01/09 05:20:34;;;;;;;32.90;13.20;;;;;;;-2.27;97.87;98670.48;103336;1294;71663;-69
2022/01/09 05:25:06;;;;;;;;;;;;;;;;;;;;;
2022/01/09 05:29:00;;;;;;;;;;;;;;;;;;;;;
2022/01/09 05:32:41;;;;;;;36.40;15.90;;;;;;;-2.18;98.61;98658.44;103182;1292;73466;-68
2022/01/09 05:36:31;;;;;;;36.90;15.50;;;;;;;-2.18;98.74;98649.71;103586;1290;65833;-68
2022/01/09 05:40:25;;;;;;;40.90;16.90;;;;;;;-2.18;98.98;98647.48;103698;1290;72857;-68
2022/01/09 05:44:25;;;;;;;42.20;17.40;;;;;;;-2.22;98.82;98655.65;103449;1291;59704;-68
2022/01/09 05:48:15;;;;;;;49.20;18.80;;;;;;;-2.24;99.03;98653.67;103556;1290;60568;-68
2022/01/09 05:52:25;;;;;;;38.50;15.10;;;;;;;-2.29;99.29;98658.08;104405;1275;72264;-68
2022/01/09 05:56:15;;;;;;;41.30;16.30;;;;;;;-2.33;99.55;98651.86;103639;1283;1003107;-67
2022/01/09 06:00:02;;;;;;;43.40;18.10;;;;;;;-2.33;99.37;98649.72;104615;1281;73165;-67
2022/01/09 06:03:23;;;;;;;34.90;14.10;;;;;;;-2.31;99.58;98654.18;103671;1284;59599;-67
2022/01/09 06:07:10;;;;;;;37.00;15.90;;;;;;;-2.33;99.55;98663.13;103944;1284;60413;-69
2022/01/09 06:16:37;;;;;;;36.30;13.70;;;;;;;-2.32;99.82;98670.23;105008;1290;69422;-69
2022/01/09 06:20:45;;;;;;;43.80;16.60;;;;;;;-2.29;99.66;98671.61;101144;1290;3670563;-68
2022/01/09 06:28:32;;;;;;;42.60;17.20;;;;;;;-2.25;98.85;98684.96;103247;1297;60396;-68
2022/01/09 06:37:57;;;;;;;43.80;16.40;;;;;;;-2.28;98.30;98693.67;102740;1299;67986;-69
2022/01/09 06:41:20;;;;;;;49.10;17.80;;;;;;;-2.30;98.24;98689.21;103125;1293;73062;-68
2022/01/09 06:44:26;;;;;;;43.70;18.40;;;;;;;-2.29;98.28;98691.61;102990;1294;59976;-68
2022/01/09 06:48:02;;;;;;;45.90;19.70;;;;;;;-2.27;98.34;98694.11;103304;1294;59920;-68
2022/01/09 06:52:50;;;;;;;51.30;18.70;;;;;;;-2.22;98.23;98697.71;103779;1286;71955;-69
2022/01/09 06:56:18;;;;;;;42.80;17.50;;;;;;;-2.16;98.27;98707.52;104484;1284;67190;-68
2022/01/09 06:59:38;;;;;;;44.90;17.40;;;;;;;-2.17;97.99;98712.09;104129;1285;71633;-68
2022/01/09 07:03:03;;;;;;;41.80;17.00;;;;;;;-2.19;98.09;98713.74;104490;1281;59841;-68
2022/01/09 07:16:47;;;;;;;30.60;10.20;;;;;;;-2.27;97.51;98731.13;104934;1281;67458;-68
2022/01/09 07:21:49;;;;;;;;;;;;;;;;;;;;;
2022/01/09 07:26:19;;;;;;;44.80;16.80;;;;;;;-2.27;97.35;98734.94;104828;1281;59890;-67
2022/01/09 07:30:27;;;;;;;40.60;15.90;;;;;;;-2.26;97.67;98740.44;104935;1281;60692;-68
2022/01/09 07:34:05;;;;;;;32.10;11.50;;;;;;;-2.23;97.63;98750.58;104926;1281;72145;-68
2022/01/09 07:37:14;;;;;;;33.60;12.50;;;;;;;-2.21;97.59;98752.23;104623;1281;67910;-67
2022/01/09 07:40:28;;;;;;;44.00;16.20;;;;;;;-2.21;97.17;98747.90;104503;1281;73238;-67
2022/01/09 07:43:57;;;;;;;45.00;17.10;;;;;;;-2.17;97.29;98748.39;104901;1281;59586;-68
2022/01/09 07:47:08;;;;;;;42.50;14.70;;;;;;;-2.13;97.17;98755.16;105171;1274;60034;-67
2022/01/09 07:50:10;;;;;;;41.80;15.60;;;;;;;-2.11;96.96;98762.36;105254;1275;72136;-67
2022/01/09 08:01:55;;;;;;;45.40;16.50;;;;;;;-2.15;96.18;98773.66;105624;1274;59686;-68
2022/01/09 08:05:26;;;;;;;43.50;16.70;;;;;;;-2.13;95.89;98770.98;105805;1274;59541;-67
2022/01/09 08:08:33;;;;;;;45.60;17.00;;;;;;;-2.09;96.29;98770.81;105142;1274;70995;-67
2022/01/09 08:17:41;;;;;;;39.80;16.40;;;;;;;-1.94;95.81;98768.20;104091;1287;73117;-68
2022/01/09 08:21:38;;;;;;;40.60;16.50;;;;;;;-1.86;95.90;98769.22;104275;1287;59562;-68
2022/01/09 08:25:21;;;;;;;46.60;17.50;;;;;;;-1.79;95.59;98768.04;104197;1287;59858;-69
2022/01/09 08:29:16;;;;;;;46.90;18.20;;;;;;;-1.69;94.97;98776.94;104314;1286;73522;-68
2022/01/09 08:32:52;;;;;;;42.00;18.00;;;;;;;-1.61;94.10;98788.20;104139;1286;67184;-67
2022/01/09 08:40:39;;;;;;;40.80;15.70;;;;;;;-1.41;92.15;98785.80;104229;1286;59798;-68
2022/01/09 09:00:51;;;;;;;49.50;19.10;;;;;;;-1.37;91.45;98788.23;104626;1273;1002656;-67
2022/01/09 09:05:07;;;;;;;;;;;;;;;;;;;;;
2022/01/09 09:14:30;;;;;;;50.60;19.40;;;;;;;-0.53;88.87;98781.77;104496;1285;71903;-68
2022/01/09 09:19:26;;;;;;;44.70;18.90;;;;;;;0.07;86.00;98777.70;103921;1291;66690;-68
2022/01/09 10:03:00;;;;;;;32.60;21.10;;;;;;;10.59;43.42;98723.77;103666;1291;59694;-70
2022/01/09 10:06:51;;;;;;;36.40;22.50;;;;;;;11.40;41.78;98719.24;104030;1287;73124;-70
2022/01/09 10:10:15;;;;;;;33.40;21.30;;;;;;;11.97;39.57;98717.18;104149;1287;66487;-70
2022/01/09 10:15:18;;;;;;;34.20;21.10;;;;;;;12.59;38.51;98717.16;104484;1285;73255;-71
2022/01/09 10:19:02;;;;;;;30.60;19.90;;;;;;;13.25;36.92;98704.66;104648;1281;59891;-72
2022/01/09 10:23:14;;;;;;;;;;;;;;;;;;;;;
2022/01/09 10:31:30;;;;;;;30.10;19.30;;;;;;;13.87;33.29;98681.15;104573;1281;67471;-71
2022/01/09 10:36:17;;;;;;;32.70;20.40;;;;;;;13.56;33.24;98674.02;104889;1281;71918;-71
2022/01/09 10:41:20;;;;;;;;;;;;;;;;;;;;;
2022/01/09 11:01:37;;;;;;;30.80;18.60;;;;;;;13.33;32.74;98647.91;102659;1305;72426;-70
2022/01/09 11:06:36;;;;;;;27.90;18.20;;;;;;;13.70;31.84;98644.69;102888;1300;59943;-70
2022/01/09 11:20:31;;;;;;;30.50;19.80;;;;;;;13.96;30.91;98646.38;102532;1309;68394;-72
2022/01/09 11:24:41;;;;;;;29.70;18.70;;;;;;;13.68;31.51;98644.73;102361;1308;71965;-70
2022/01/09 11:39:29;;;;;;;33.00;20.80;;;;;;;12.49;33.51;98654.02;103382;1294;74698;-70
2022/01/09 11:44:02;;;;;;;;;;;;;;;;;;;;;
2022/01/09 11:53:45;;;;;;;40.00;23.00;;;;;;;10.05;36.81;98666.27;105218;1283;59913;-70
2022/01/09 11:57:28;;;;;;;40.80;24.30;;;;;;;9.08;38.07;98672.53;104547;1282;60783;-69
2022/01/09 12:11:13;;;;;;;43.20;24.40;;;;;;;7.44;43.10;98678.73;103680;1288;71670;-69
2022/01/09 12:15:28;;;;;;;44.20;26.00;;;;;;;7.29;43.19;98682.41;104106;1288;59776;-69
2022/01/09 12:23:36;;;;;;;44.80;25.40;;;;;;;6.79;45.08;98681.36;103563;1279;1003686;-69
2022/01/09 12:27:54;;;;;;;51.80;28.10;;;;;;;6.42;46.03;98687.28;104547;1279;66870;-69
2022/01/09 12:36:13;;;;;;;44.30;24.40;;;;;;;5.26;48.42;98700.26;104971;1277;59832;-69
2022/01/09 12:40:35;;;;;;;48.80;26.20;;;;;;;4.84;49.90;98701.72;104755;1284;59672;-69
2022/01/09 12:49:48;;;;;;;47.70;25.70;;;;;;;4.33;50.80;98712.52;104260;1284;69390;-68
2022/01/09 12:54:00;;;;;;;48.20;25.80;;;;;;;3.64;52.72;98718.50;104281;1284;73041;-69
2022/01/09 13:02:38;;;;;;;52.50;26.40;;;;;;;1.88;58.11;98730.02;104025;1283;62031;-68
2022/01/09 13:06:16;;;;;;;51.80;25.30;;;;;;;1.43;59.71;98727.02;104483;1283;72371;-69
2022/01/09 13:11:01;;;;;;;58.30;29.80;;;;;;;0.90;61.72;98733.00;103841;1288;69384;-68
2022/01/09 13:15:40;;;;;;;61.50;29.70;;;;;;;0.49;63.82;98736.08;103787;1284;1005051;-69
2022/01/09 13:19:29;;;;;;;56.50;26.00;;;;;;;0.09;66.17;98739.16;104489;1284;59816;-69
2022/01/09 13:29:15;;;;;;;61.70;29.00;;;;;;;-0.60;69.63;98739.08;103102;1297;73686;-68
2022/01/09 13:34:15;;;;;;;59.40;28.20;;;;;;;-0.82;70.29;98741.45;102805;1299;68768;-68
2022/01/09 13:39:08;;;;;;;;;;;;;;;;;;;;;
2022/01/09 13:43:29;;;;;;;58.00;26.60;;;;;;;-1.16;71.68;98756.40;102106;1298;1002988;-71
2022/01/09 13:47:50;;;;;;;62.50;29.00;;;;;;;-1.28;72.73;98759.60;102849;1297;59601;-68
2022/01/09 14:02:44;;;;;;;56.30;25.20;;;;;;;-1.68;76.40;98780.55;103281;1289;71938;-67
2022/01/09 14:07:31;;;;;;;;;;;;;;;;;;;;;
2022/01/09 14:12:26;;;;;;;63.40;29.10;;;;;;;-2.07;78.32;98811.17;104311;1287;60397;-68
2022/01/09 14:33:24;;;;;;;67.90;30.60;;;;;;;-2.58;81.55;98853.06;103865;1287;59828;-68
2022/01/09 14:43:55;;;;;;;;;;;;;;;;;;;;;
2022/01/09 14:59:31;;;;;;;76.80;33.70;;;;;;;-3.05;83.71;98901.39;104131;1286;59571;-68
2022/01/09 15:04:03;;;;;;;;;;;;;;;;;;;;;
2022/01/09 15:14:20;;;;;;;78.10;33.70;;;;;;;-3.33;85.75;98923.13;104091;1287;66666;-68
2022/01/09 15:18:28;;;;;;;70.70;31.60;;;;;;;-3.36;86.44;98924.13;104690;1281;71664;-69
2022/01/09 15:22:22;;;;;;;71.30;29.50;;;;;;;-3.40;86.73;98929.31;104772;1279;59762;-68
2022/01/09 15:27:03;;;;;;;73.20;31.20;;;;;;;-3.44;86.03;98928.23;105177;1279;59649;-68
2022/01/09 15:36:57;;;;;;;67.40;28.80;;;;;;;-3.60;86.75;98919.84;104989;1274;69391;-67
2022/01/09 15:40:35;;;;;;;62.30;25.90;;;;;;;-3.68;86.78;98909.73;105401;1274;71301;-68
2022/01/09 15:45:02;;;;;;;71.40;33.00;;;;;;;-3.76;87.13;98902.23;105900;1277;59723;-69
2022/01/09 15:48:51;;;;;;;90.80;36.30;;;;;;;-3.83;88.14;98904.92;104132;1281;63085;-68
2022/01/09 15:52:15;;;;;;;86.40;34.20;;;;;;;-3.86;88.38;98907.98;104614;1280;73336;-68
2022/01/09 16:01:37;;;;;;;;;;;;;;;;;;;;;
2022/01/09 16:05:42;;;;;;;81.80;34.80;;;;;;;-3.79;90.23;98959.55;102312;1292;1002988;-68
2022/01/09 16:08:58;;;;;;;;;;;;;;;;;;;;;
2022/01/09 16:13:41;;;;;;;66.70;27.30;;;;;;;-3.76;90.14;98964.97;102824;1297;74687;-69
2022/01/09 16:18:14;;;;;;;47.80;21.00;;;;;;;-3.79;90.04;98968.05;102585;1300;69363;-68
2022/01/09 16:32:23;;;;;;;132.00;50.80;;;;;;;-3.97;90.04;98990.36;102826;1297;59810;-68
2022/01/09 16:36:02;;;;;;;109.50;46.90;;;;;;;-3.98;90.80;99005.45;102828;1303;74843;-69
2022/01/09 16:40:09;;;;;;;81.50;34.60;;;;;;;-3.94;90.99;99005.83;101509;1306;1004018;-67
2022/01/09 16:44:07;;;;;;;77.70;32.50;;;;;;;-3.91;90.96;99010.61;102599;1306;74586;-68
2022/01/09 16:47:59;;;;;;;78.30;33.50;;;;;;;-3.91;91.50;99019.27;101971;1306;59822;-68
2022/01/09 16:51:54;;;;;;;74.40;32.20;;;;;;;-3.92;90.93;99025.67;102220;1303;60493;-68
2022/01/09 17:00:21;;;;;;;126.00;50.60;;;;;;;-3.95;91.24;99021.30;102337;1299;1003425;-68
2022/01/09 17:05:31;;;;;;;92.90;38.90;;;;;;;-3.93;90.66;99029.55;103464;1288;71741;-68
2022/01/09 17:09:38;;;;;;;80.50;34.40;;;;;;;-3.91;90.78;99032.60;104984;1280;59743;-68
2022/01/09 17:14:57;;;;;;;83.30;34.20;;;;;;;-3.90;90.90;99032.56;103476;1282;1003138;-68
2022/01/09 17:19:01;;;;;;;75.40;32.00;;;;;;;-3.93;90.59;99030.06;104641;1282;72199;-68
2022/01/09 17:23:12;;;;;;;;;;;;;;;;;;;;;
2022/01/09 17:27:30;;;;;;;64.80;27.80;;;;;;;-4.00;90.74;99045.20;104352;1284;71592;-67
2022/01/09 17:32:03;;;;;;;124.10;49.70;;;;;;;-4.04;90.73;99052.11;103615;1290;59824;-68
2022/01/09 17:36:20;;;;;;;125.60;52.40;;;;;;;-4.04;90.89;99053.15;103607;1290;60720;-68
2022/01/09 17:40:29;;;;;;;92.80;40.60;;;;;;;-4.00;90.69;99058.21;103889;1290;73527;-68
2022/01/09 17:44:28;;;;;;;79.90;34.20;;;;;;;-3.98;91.08;99063.84;102985;1290;1003775;-68
2022/01/09 17:54:30;;;;;;;;;;;;;;;;;;;;;
2022/01/09 17:58:54;;;;;;;66.90;28.90;;;;;;;-3.99;90.81;99094.91;104159;1284;60854;-68
2022/01/09 18:02:35;;;;;;;73.30;29.80;;;;;;;-4.04;90.69;99105.48;104668;1282;71975;-68
2022/01/09 18:06:26;;;;;;;77.80;31.80;;;;;;;-4.08;90.98;99108.90;104755;1282;67169;-69
2022/01/09 18:10:10;;;;;;;;;;;;;;;;;;;;;
2022/01/09 18:15:19;;;;;;;;;;;;;;;;;;;;;
2022/01/09 18:20:13;;;;;;;73.60;30.70;;;;;;;-4.09;91.44;99130.93;100697;1285;5520332;-68
2022/01/09 18:24:46;;;;;;;76.50;30.00;;;;;;;-4.05;90.99;99138.80;103070;1294;67964;-68
2022/01/09 18:27:45;;;;;;;67.60;29.90;;;;;;;-4.04;91.16;99146.05;103141;1294;72890;-68
2022/01/09 18:40:59;;;;;;;66.50;27.70;;;;;;;-4.15;91.46;99163.86;102868;1294;1003680;-68
2022/01/09 18:45:05;;;;;;;110.20;43.10;;;;;;;-4.17;91.21;99171.21;103401;1289;67028;-69
2022/01/09 18:53:17;;;;;;;72.40;30.60;;;;;;;-4.15;91.34;99185.34;105271;1282;59693;-68
2022/01/09 19:03:26;;;;;;;;;;;;;;;;;;;;;
2022/01/09 19:08:54;;;;;;;57.00;23.10;;;;;;;-4.20;91.30;99198.50;104724;1282;68043;-70
2022/01/09 19:12:42;;;;;;;75.20;30.70;;;;;;;-4.25;91.48;99202.83;105509;1282;71866;-70
2022/01/09 19:27:05;;;;;;;72.20;30.00;;;;;;;-4.27;92.20;99220.36;105532;1279;71497;-69
2022/01/09 19:31:51;;;;;;;59.00;23.40;;;;;;;-4.22;92.40;99226.30;105400;1279;69397;-69
2022/01/09 19:51:55;;;;;;;47.10;20.50;;;;;;;-4.39;92.84;99257.98;104153;1287;72191;-69
2022/01/09 19:55:06;;;;;;;86.90;34.10;;;;;;;-4.44;92.96;99261.05;103947;1287;67500;-69
2022/01/09 19:58:11;;;;;;;98.20;40.20;;;;;;;-4.45;92.93;99270.24;103524;1287;1003087;-69
2022/01/09 20:02:34;;;;;;;81.40;36.20;;;;;;;-4.43;92.98;99273.34;103986;1287;59691;-68
2022/01/09 20:06:21;;;;;;;74.30;30.40;;;;;;;-4.40;93.19;99276.55;105054;1279;60533;-68
2022/01/09 20:09:22;;;;;;;68.50;28.60;;;;;;;-4.38;93.26;99283.23;104765;1278;72336;-69
2022/01/09 20:13:31;;;;;;;69.70;29.50;;;;;;;-4.37;93.57;99285.98;105089;1279;66017;-69
2022/01/09 20:22:20;;;;;;;59.50;22.40;;;;;;;-4.40;93.31;99299.40;104353;1285;59870;-69
2022/01/09 20:25:27;;;;;;;68.50;27.20;;;;;;;-4.44;93.53;99305.55;103429;1285;1003900;-69
2022/01/09 20:28:42;;;;;;;82.20;33.10;;;;;;;-4.46;93.70;99311.86;104558;1285;73518;-69
2022/01/09 20:31:38;;;;;;;86.00;35.90;;;;;;;-4.48;94.67;99311.75;103894;1285;68775;-68
2022/01/09 20:35:12;;;;;;;80.10;33.50;;;;;;;-4.45;94.38;99321.36;103991;1285;73020;-68
2022/01/09 20:38:23;;;;;;;68.70;30.30;;;;;;;-4.44;94.50;99322.71;103887;1285;59773;-68
2022/01/09 20:57:48;;;;;;;107.20;43.90;;;;;;;-4.48;94.24;99343.09;104136;1284;73198;-68
2022/01/09 21:28:27;;;;;;;90.70;32.90;;;;;;;-4.56;95.40;99399.05;101504;1311;59824;-68
2022/01/09 21:32:43;;;;;;;107.00;36.30;;;;;;;-4.54;95.36;99403.69;101984;1305;60684;-69
2022/01/09 21:35:48;;;;;;;92.90;31.60;;;;;;;-4.50;95.26;99411.90;102175;1305;73590;-68
2022/01/09 21:38:46;;;;;;;93.40;34.50;;;;;;;-4.50;95.21;99415.52;102724;1299;67152;-68
2022/01/09 21:41:45;;;;;;;94.80;33.70;;;;;;;-4.51;95.10;99413.81;102616;1300;73004;-68
2022/01/09 21:44:39;;;;;;;82.10;32.50;;;;;;;-4.52;94.99;99419.56;103400;1286;59757;-68
2022/01/09 21:47:31;;;;;;;84.00;33.20;;;;;;;-4.54;94.70;99420.84;103560;1287;59892;-68
2022/01/09 21:50:27;;;;;;;95.30;39.60;;;;;;;-4.58;94.61;99424.05;103628;1286;72289;-68
2022/01/09 21:53:26;;;;;;;109.20;43.50;;;;;;;-4.60;94.68;99427.73;103537;1285;1003042;-68
2022/01/09 21:56:41;;;;;;;106.20;39.90;;;;;;;-4.59;94.78;99437.25;104136;1285;73147;-68
2022/01/09 22:00:26;;;;;;;123.70;38.70;;;;;;;-4.56;95.01;99441.48;104083;1285;59799;-68
2022/01/09 22:03:31;;;;;;;83.80;33.80;;;;;;;-4.51;95.20;99449.52;103705;1286;60065;-68
2022/01/09 22:10:49;;;;;;;92.90;34.70;;;;;;;-4.50;94.97;99452.91;104527;1280;66145;-68
2022/01/09 22:14:50;;;;;;;76.90;31.40;;;;;;;-4.54;94.66;99462.03;105120;1271;71936;-68
2022/01/09 22:18:02;;;;;;;93.70;32.10;;;;;;;-4.62;94.53;99466.56;105250;1271;59672;-68
2022/01/09 22:21:09;;;;;;;90.30;33.10;;;;;;;-4.68;94.52;99469.83;105321;1271;59855;-68
2022/01/09 22:24:18;;;;;;;123.70;43.30;;;;;;;-4.74;94.47;99476.39;104992;1271;72124;-68
2022/01/09 22:27:20;;;;;;;108.20;41.70;;;;;;;-4.79;94.54;99481.34;105232;1272;67881;-68
2022/01/09 22:52:52;;;;;;;98.70;34.30;;;;;;;-4.84;95.47;99529.42;104469;1278;69452;-68
2022/01/09 22:55:44;;;;;;;102.20;36.30;;;;;;;-4.88;95.19;99539.39;104130;1280;1003505;-68
2022/01/09 22:59:20;;;;;;;104.10;35.50;;;;;;;-4.93;94.75;99547.95;104510;1277;59989;-68
2022/01/09 23:04:03;;;;;;;110.50;41.60;;;;;;;-4.99;95.16;99551.39;103827;1280;1003108;-68
2022/01/09 23:07:16;;;;;;;104.00;42.90;;;;;;;-5.02;95.47;99550.77;104744;1278;72178;-68
2022/01/09 23:10:42;;;;;;;102.50;39.80;;;;;;;-5.02;96.38;99548.86;104460;1280;66710;-68
2022/01/09 23:13:47;;;;;;;95.40;37.70;;;;;;;-5.00;96.63;99552.98;104650;1277;71902;-69
2022/01/09 23:16:51;;;;;;;87.30;37.50;;;;;;;-4.97;96.60;99553.95;104653;1277;59706;-68
2022/01/09 23:19:52;;;;;;;93.60;39.20;;;;;;;-4.94;96.75;99559.08;104850;1277;60548;-68
2022/01/09 23:23:28;;;;;;;94.90;37.80;;;;;;;-4.90;96.91;99563.66;104695;1278;73726;-68
2022/01/09 23:30:42;;;;;;;84.20;34.40;;;;;;;-4.86;96.39;99565.81;105073;1271;72219;-68
2022/01/09 23:34:27;;;;;;;76.10;32.70;;;;;;;-4.87;96.56;99564.45;104403;1272;1003437;-68
2022/01/09 23:37:31;;;;;;;92.70;35.60;;;;;;;-4.86;97.09;99569.29;105049;1274;59673;-68
2022/01/09 23:40:55;;;;;;;90.00;38.90;;;;;;;-4.86;97.49;99572.55;104955;1274;71145;-68
2022/01/09 23:44:11;;;;;;;87.80;35.50;;;;;;;-4.83;98.11;99575.09;105203;1271;68257;-68
2022/01/09 23:47:25;;;;;;;83.50;35.30;;;;;;;-4.79;98.23;99578.45;104165;1271;1003718;-67
2022/01/09 23:50:36;;;;;;;83.80;35.60;;;;;;;-4.74;98.06;99580.61;104639;1271;1003609;-68
2022/01/09 23:55:29;;;;;;;88.50;39.20;;;;;;;-4.68;97.80;99583.41;104442;1281;61755;-67
2022/01/09 23:58:39;;;;;;;88.10;38.80;;;;;;;-4.64;98.01;99582.27;103994;1281;1003005;-68
